Terminal Aerodrome Forecast
Issued by NWS

Home | Current Version | Previous Version | Text Only | Print | Product List | Glossary On
Versions: 1 2 3 4 5 6 7 8 9 10 11 12 13 14 15 16 17 18 19 20 21 22 23 24 25 26 27 28 29 30 31 32 33 34 35 36 37 38 39 40 41 42 43
000
FTUS45 KBOU 221901 AAA
TAFAPA
TAF AMD
KAPA 221901Z 2219/2318 29006KT P6SM SCT080 BKN120
     FM222000 31014G20KT P6SM VCSH SCT060 BKN070
     FM222100 34014G25KT P6SM VCSH SCT040 BKN070
      TEMPO 2221/2301 2SM -SHSN BKN040
     FM230500 34018G26KT P6SM SCT060 BKN090
     FM231000 33020G30KT P6SM SCT050 BKN070 PROB30 2310/2316 2SM -SN
      BLSN BKN030 OVC050=

USA.gov is the U.S. government's official web portal to all federal, state and local government web resources and services.